Terminal Aerodrome Forecast
Issued by NWS

Home | Current Version | Previous Version | Text Only | Print | Product List | Glossary On
Versions: 1 2 3 4 5 6 7 8 9 10 11 12 13 14 15 16 17
000
FTUS46 KOTX 240327 AAB
TAFSFF
TAF AMD
KSFF 240327Z 2403/2424 VRB03KT P6SM -SHRA VCTS OVC110CB
     FM240700 VRB04KT P6SM SCT200
     FM241800 21009KT P6SM SCT050=

USA.gov is the U.S. government's official web portal to all federal, state and local government web resources and services.